createdAt,value
2023-01-25T00:03:59.937Z,32.30
2023-01-25T00:06:28.008Z,29.80
2023-01-25T00:08:55.019Z,29.08
2023-01-25T00:11:21.872Z,27.58
2023-01-25T00:16:14.716Z,27.45
2023-01-25T00:18:41.839Z,30.05
2023-01-25T00:21:12.192Z,32.70
2023-01-25T00:23:39.328Z,28.75
2023-01-25T00:26:06.295Z,28.95
2023-01-25T00:28:33.343Z,29.23
2023-01-25T00:31:01.204Z,29.83
2023-01-25T00:33:39.822Z,26.73
2023-01-25T00:36:25.173Z,30.23
2023-01-25T00:41:19.085Z,29.52
2023-01-25T00:43:46.079Z,29.35
2023-01-25T00:46:17.477Z,27.75
2023-01-25T00:48:54.965Z,31.33
2023-01-25T00:53:47.777Z,30.30
2023-01-25T00:56:15.108Z,26.23
2023-01-25T01:06:00.278Z,32.33
2023-01-25T01:08:27.417Z,28.60
2023-01-25T01:10:58.944Z,32.17
2023-01-25T01:15:51.301Z,32.05
2023-01-25T01:18:18.287Z,33.25
2023-01-25T01:25:40.155Z,28.52
2023-01-25T01:32:59.738Z,31.27
2023-01-25T01:37:52.415Z,29.92
2023-01-25T01:40:19.205Z,30.77
2023-01-25T01:42:58.917Z,32.10
2023-01-25T01:45:44.187Z,30.88
2023-01-25T01:48:18.957Z,34.90
2023-01-25T01:50:46.334Z,31.85
2023-01-25T01:53:13.323Z,30.42
2023-01-25T02:25:21.411Z,35.75
2023-01-25T02:27:51.455Z,32.67
2023-01-25T02:30:18.583Z,32.22
2023-01-25T02:40:17.736Z,33.40
2023-01-25T02:42:45.577Z,37.00
2023-01-25T02:48:16.787Z,33.88
2023-01-25T02:50:45.374Z,36.28
2023-01-25T02:53:12.469Z,32.33
2023-01-25T03:10:13.335Z,32.03
2023-01-25T03:15:06.664Z,31.83
2023-01-25T03:17:34.030Z,34.33
2023-01-25T03:22:27.058Z,31.63
2023-01-25T03:24:54.035Z,33.53
2023-01-25T03:27:21.546Z,33.20
2023-01-25T03:29:56.968Z,31.20
2023-01-25T03:32:23.785Z,30.33
2023-01-25T03:34:50.939Z,30.33
2023-01-25T03:37:19.543Z,31.70
2023-01-25T03:39:47.969Z,32.55
2023-01-25T03:42:15.612Z,32.35
2023-01-25T03:44:43.787Z,31.40
2023-01-25T03:52:02.148Z,30.60
2023-01-25T03:57:02.180Z,31.10
2023-01-25T03:59:29.867Z,33.58
2023-01-25T04:04:22.479Z,31.38
2023-01-25T04:06:50.166Z,31.80
2023-01-25T04:09:18.001Z,30.58
2023-01-25T04:11:51.195Z,30.70
2023-01-25T04:14:25.530Z,32.67
2023-01-25T04:17:05.622Z,31.13
2023-01-25T04:19:32.452Z,31.27
2023-01-25T04:22:02.431Z,32.20
2023-01-25T04:24:29.234Z,33.10
2023-01-25T04:26:56.562Z,31.88
2023-01-25T04:29:39.187Z,30.55
2023-01-25T04:32:07.340Z,26.77
2023-01-25T04:34:35.098Z,30.08
2023-01-25T04:37:02.029Z,30.17
2023-01-25T04:44:24.936Z,29.20
2023-01-25T04:56:50.575Z,30.45
2023-01-25T04:59:18.353Z,31.25
2023-01-25T05:01:46.599Z,30.63
2023-01-25T05:11:35.552Z,30.50
2023-01-25T05:14:19.360Z,32.15
2023-01-25T05:16:47.562Z,31.70
2023-01-25T05:19:14.957Z,30.77
2023-01-25T05:22:00.063Z,33.03
2023-01-25T05:24:33.078Z,30.85
2023-01-25T05:27:05.835Z,29.95
2023-01-25T05:29:59.092Z,27.38
2023-01-25T05:32:26.094Z,25.80
2023-01-25T05:34:53.380Z,31.50
2023-01-25T05:37:21.343Z,30.80
2023-01-25T05:44:40.417Z,29.88
2023-01-25T05:49:32.982Z,31.30
2023-01-25T05:52:00.488Z,29.17
2023-01-25T06:04:13.138Z,30.13
2023-01-25T06:06:40.551Z,31.85
2023-01-25T06:09:07.580Z,33.63
2023-01-25T06:11:35.207Z,32.17
2023-01-25T06:14:03.966Z,30.77
2023-01-25T06:18:56.457Z,29.67
2023-01-25T06:21:26.180Z,31.25
2023-01-25T06:31:14.138Z,33.38
2023-01-25T06:33:43.124Z,32.35
2023-01-25T06:41:07.167Z,34.40
2023-01-25T06:43:34.758Z,32.60
2023-01-25T06:46:06.159Z,30.65
2023-01-25T06:48:33.455Z,31.15
2023-01-25T07:00:42.356Z,31.20
2023-01-25T07:03:09.367Z,30.83
2023-01-25T07:05:36.504Z,31.23
2023-01-25T07:08:03.518Z,35.22
2023-01-25T07:10:32.418Z,33.15
2023-01-25T07:12:59.916Z,33.08
2023-01-25T07:20:18.418Z,28.88
2023-01-25T07:22:45.435Z,28.45
2023-01-25T07:25:12.555Z,29.58
2023-01-25T07:27:39.666Z,28.30
2023-01-25T07:30:07.122Z,27.13
2023-01-25T07:32:34.598Z,30.20
2023-01-25T07:35:01.550Z,36.88
2023-01-25T07:37:28.527Z,38.50
2023-01-25T07:39:58.423Z,35.65
2023-01-25T07:42:25.398Z,31.23
2023-01-25T07:44:52.298Z,35.45
2023-01-25T07:47:19.283Z,33.53
2023-01-25T07:49:46.151Z,31.20
2023-01-25T07:54:38.747Z,32.97
2023-01-25T07:57:05.725Z,32.38
2023-01-25T08:01:58.460Z,32.88
2023-01-25T08:04:25.922Z,33.03
2023-01-25T08:14:11.920Z,33.28
2023-01-25T08:16:39.048Z,32.33
2023-01-25T08:19:06.169Z,31.25
2023-01-25T08:24:00.018Z,31.77
2023-01-25T08:26:27.304Z,32.40
2023-01-25T08:33:56.439Z,32.97
2023-01-25T08:36:28.348Z,31.25
2023-01-25T08:41:22.069Z,33.33
2023-01-25T08:43:48.933Z,31.83
2023-01-25T08:46:17.149Z,33.42
2023-01-25T08:48:44.220Z,33.50
2023-01-25T08:51:15.471Z,34.05
2023-01-25T08:56:11.982Z,33.92
2023-01-25T08:58:40.321Z,35.55
2023-01-25T09:01:08.171Z,34.58
2023-01-25T09:03:36.172Z,35.08
2023-01-25T09:06:03.245Z,34.00
2023-01-25T09:08:30.265Z,34.17
2023-01-25T09:11:01.311Z,33.92
2023-01-25T09:13:28.552Z,33.92
2023-01-25T09:16:06.394Z,33.03
2023-01-25T09:18:33.870Z,32.95
2023-01-25T09:27:07.142Z,36.25
2023-01-25T09:29:34.224Z,33.45
2023-01-25T09:32:01.504Z,32.65
2023-01-25T09:34:28.511Z,32.40
2023-01-25T09:36:55.393Z,33.08
2023-01-25T09:39:22.414Z,33.38
2023-01-25T09:42:15.304Z,35.70
2023-01-25T09:44:45.651Z,34.33
2023-01-25T09:47:25.862Z,35.10
2023-01-25T09:50:04.555Z,38.17
2023-01-25T09:52:34.299Z,36.97
2023-01-25T09:55:02.002Z,35.30
2023-01-25T09:57:35.378Z,35.40
2023-01-25T10:00:08.434Z,35.10
2023-01-25T10:05:16.533Z,34.15
2023-01-25T10:08:02.537Z,33.58
2023-01-25T10:10:35.386Z,30.95
2023-01-25T10:15:36.402Z,35.35
2023-01-25T10:18:13.479Z,35.50
2023-01-25T10:23:27.053Z,32.97
2023-01-25T10:28:57.885Z,34.25
2023-01-25T10:31:50.230Z,35.00
2023-01-25T10:34:21.061Z,31.77
2023-01-25T10:36:51.062Z,32.55
2023-01-25T10:39:18.708Z,33.85
2023-01-25T10:51:48.064Z,33.03
2023-01-25T10:54:15.944Z,34.70
2023-01-25T10:56:43.782Z,33.30
2023-01-25T10:59:10.662Z,32.40
2023-01-25T11:01:37.831Z,35.22
2023-01-25T11:09:22.104Z,35.40
2023-01-25T11:11:56.698Z,35.20
2023-01-25T11:14:24.247Z,34.53
2023-01-25T11:16:51.149Z,34.17
2023-01-25T11:19:34.708Z,35.05
2023-01-25T11:22:03.123Z,37.33
2023-01-25T11:24:32.214Z,33.40
2023-01-25T11:32:16.269Z,32.83
2023-01-25T11:34:43.629Z,32.55
2023-01-25T11:37:20.229Z,32.00
2023-01-25T11:40:08.103Z,34.08
2023-01-25T11:51:04.772Z,33.53
2023-01-25T11:54:01.148Z,33.28
2023-01-25T11:56:27.934Z,33.80
2023-01-25T11:58:54.795Z,34.05
2023-01-25T12:07:34.458Z,34.42
2023-01-25T12:10:07.708Z,32.55
2023-01-25T12:12:42.135Z,32.53
2023-01-25T12:25:33.519Z,33.17
2023-01-25T12:28:06.648Z,35.00
2023-01-25T12:33:24.170Z,34.47
2023-01-25T12:38:27.438Z,32.42
2023-01-25T12:40:54.896Z,32.85
2023-01-25T12:43:44.916Z,34.53
2023-01-25T12:51:14.252Z,33.22
2023-01-25T12:53:47.719Z,33.33
2023-01-25T12:56:29.870Z,32.55
2023-01-25T13:06:49.640Z,33.38
2023-01-25T13:09:21.373Z,34.20
2023-01-25T13:11:48.728Z,33.00
2023-01-25T13:14:15.754Z,32.00
2023-01-25T13:16:43.458Z,32.50
2023-01-25T13:22:04.594Z,32.38
2023-01-25T13:24:31.440Z,34.95
2023-01-25T13:32:05.467Z,33.28
2023-01-25T13:34:42.677Z,37.88
2023-01-25T13:37:15.431Z,33.70
2023-01-25T13:39:43.540Z,29.05
2023-01-25T13:42:10.263Z,29.30
2023-01-25T13:57:12.831Z,31.50
2023-01-25T13:59:40.552Z,28.40
2023-01-25T14:07:10.114Z,30.90
2023-01-25T14:14:34.171Z,29.02
2023-01-25T14:19:48.972Z,29.55
2023-01-25T14:27:17.080Z,30.38
2023-01-25T14:34:42.785Z,31.33
2023-01-25T14:39:47.334Z,31.70
2023-01-25T14:42:15.145Z,32.72
2023-01-25T14:49:55.509Z,33.42
2023-01-25T14:52:25.287Z,34.10
2023-01-25T14:54:57.566Z,32.30
2023-01-25T14:57:29.578Z,32.15
2023-01-25T14:59:56.957Z,35.53
2023-01-25T15:02:26.666Z,33.70
2023-01-25T15:05:11.032Z,32.33
2023-01-25T15:07:50.043Z,33.40
2023-01-25T15:10:19.402Z,32.90
2023-01-25T15:15:33.376Z,32.55
2023-01-25T15:18:00.487Z,30.10
2023-01-25T15:25:29.790Z,41.28
2023-01-25T15:32:48.410Z,33.63
2023-01-25T15:35:16.254Z,30.35
2023-01-25T15:37:43.372Z,33.90
2023-01-25T15:40:12.257Z,32.95
2023-01-25T15:42:39.908Z,34.70
2023-01-25T15:47:35.843Z,24.50
2023-01-25T15:50:03.155Z,32.25
2023-01-25T15:55:01.352Z,28.77
2023-01-25T15:57:30.919Z,28.77
2023-01-25T15:59:58.415Z,31.92
2023-01-25T16:02:26.393Z,28.48
2023-01-25T16:04:53.708Z,28.33
2023-01-25T16:07:26.151Z,23.67
2023-01-25T16:09:53.290Z,24.02
2023-01-25T16:12:22.438Z,22.00
2023-01-25T16:17:19.811Z,13.30
2023-01-25T16:19:48.142Z,14.52
2023-01-25T16:22:15.718Z,9.90
2023-01-25T16:24:43.184Z,13.10
2023-01-25T16:27:20.698Z,8.80
2023-01-25T16:29:47.678Z,12.90
2023-01-25T16:32:14.840Z,14.77
2023-01-25T16:37:07.236Z,13.23
2023-01-25T16:39:34.374Z,14.65
2023-01-25T16:42:01.382Z,16.00
2023-01-25T16:44:28.351Z,15.13
2023-01-25T16:46:55.640Z,17.67
2023-01-25T16:56:42.006Z,16.38
2023-01-25T16:59:11.949Z,13.98
2023-01-25T17:01:40.946Z,16.13
2023-01-25T17:04:08.794Z,16.55
2023-01-25T17:09:22.142Z,13.05
2023-01-25T17:11:50.353Z,15.55
2023-01-25T17:14:19.018Z,17.23
2023-01-25T17:16:48.323Z,17.63
2023-01-25T17:21:41.767Z,22.35
2023-01-25T17:24:09.246Z,22.58
2023-01-25T17:41:51.979Z,18.35
2023-01-25T17:44:20.699Z,19.10
2023-01-25T17:46:47.955Z,18.85
2023-01-25T18:01:44.634Z,17.38
2023-01-25T18:04:13.502Z,18.27
2023-01-25T18:06:40.667Z,19.10
2023-01-25T18:09:07.671Z,18.77
2023-01-25T18:11:35.230Z,18.77
2023-01-25T18:14:03.809Z,20.92
2023-01-25T18:18:58.666Z,20.90
2023-01-25T18:21:27.014Z,21.58
2023-01-25T18:37:24.621Z,27.52
2023-01-25T18:39:52.936Z,26.70
2023-01-25T18:42:23.086Z,29.75
2023-01-25T18:47:19.502Z,26.85
2023-01-25T18:49:47.602Z,24.55
2023-01-25T18:52:14.460Z,25.48
2023-01-25T18:54:41.603Z,27.50
2023-01-25T18:57:09.882Z,26.13
2023-01-25T18:59:40.617Z,26.55
2023-01-25T19:02:13.335Z,24.60
2023-01-25T19:11:58.312Z,26.95
2023-01-25T19:14:26.006Z,27.88
2023-01-25T19:16:53.269Z,24.90
2023-01-25T19:19:28.924Z,23.05
2023-01-25T19:24:41.400Z,26.38
2023-01-25T19:27:08.410Z,26.75
2023-01-25T19:29:36.936Z,26.17
2023-01-25T19:32:04.101Z,27.58
2023-01-25T19:46:42.919Z,24.25
2023-01-25T19:49:13.293Z,24.25
2023-01-25T19:51:42.513Z,23.95
2023-01-25T19:56:41.914Z,34.47
2023-01-25T19:59:11.458Z,43.97
2023-01-25T20:09:01.866Z,28.75
2023-01-25T20:11:30.790Z,29.33
2023-01-25T20:26:21.695Z,43.75
2023-01-25T20:31:24.549Z,40.22
2023-01-25T20:33:53.267Z,35.40
2023-01-25T20:36:20.512Z,36.72
2023-01-25T20:38:47.876Z,38.05
2023-01-25T20:41:16.080Z,36.33
2023-01-25T20:44:05.542Z,29.77
2023-01-25T20:46:34.851Z,28.10
2023-01-25T20:56:21.036Z,29.90
2023-01-25T20:58:52.716Z,28.10
2023-01-25T21:01:24.521Z,27.52
2023-01-25T21:03:54.768Z,29.10
2023-01-25T21:06:21.791Z,28.83
2023-01-25T21:16:13.408Z,27.95
2023-01-25T21:18:41.808Z,28.05
2023-01-25T21:28:34.966Z,29.65
2023-01-25T21:31:09.222Z,29.98
2023-01-25T21:36:03.418Z,31.30
2023-01-25T21:38:31.383Z,31.92
2023-01-25T21:43:27.912Z,29.35
2023-01-25T21:46:13.447Z,29.23
2023-01-25T21:51:36.262Z,29.45
2023-01-25T22:08:42.232Z,28.50
2023-01-25T22:20:59.670Z,25.48
2023-01-25T22:23:27.734Z,26.42
2023-01-25T22:57:40.991Z,23.23
2023-01-25T23:00:09.189Z,23.90
2023-01-25T23:12:55.178Z,24.58
2023-01-25T23:15:22.541Z,29.77
2023-01-25T23:47:31.239Z,21.25
2023-01-25T23:49:58.599Z,16.83
2023-01-25T23:52:25.841Z,17.17
